createdAt,value
2022-12-05T00:02:01.180Z,33.17
2022-12-05T00:04:29.381Z,32.55
2022-12-05T00:06:57.306Z,30.63
2022-12-05T00:09:25.189Z,31.27
2022-12-05T00:11:53.121Z,29.77
2022-12-05T00:14:20.996Z,29.60
2022-12-05T00:16:48.843Z,30.83
2022-12-05T00:19:16.897Z,31.42
2022-12-05T00:21:44.746Z,29.85
2022-12-05T00:24:12.522Z,30.52
2022-12-05T00:26:40.382Z,29.55
2022-12-05T00:29:08.165Z,27.42
2022-12-05T00:31:36.132Z,29.88
2022-12-05T00:34:03.974Z,28.30
2022-12-05T00:36:31.921Z,29.23
2022-12-05T00:38:59.764Z,26.88
2022-12-05T00:41:27.518Z,29.83
2022-12-05T00:43:56.643Z,28.10
2022-12-05T00:46:24.536Z,27.25
2022-12-05T00:48:52.491Z,28.55
2022-12-05T00:51:20.323Z,28.00
2022-12-05T00:53:48.365Z,27.48
2022-12-05T00:56:16.168Z,27.90
2022-12-05T00:58:44.087Z,25.80
2022-12-05T01:01:12.022Z,27.77
2022-12-05T01:03:39.858Z,29.58
2022-12-05T01:06:07.715Z,27.45
2022-12-05T01:08:35.640Z,27.45
2022-12-05T01:11:03.753Z,28.60
2022-12-05T01:13:31.652Z,27.02
2022-12-05T01:15:59.546Z,27.65
2022-12-05T01:18:27.503Z,28.02
2022-12-05T01:20:55.387Z,28.35
2022-12-05T01:23:23.174Z,27.92
2022-12-05T01:25:50.960Z,28.48
2022-12-05T01:28:18.744Z,25.95
2022-12-05T01:30:46.560Z,28.02
2022-12-05T01:33:14.717Z,26.98
2022-12-05T01:35:42.494Z,27.60
2022-12-05T01:38:10.491Z,25.55
2022-12-05T01:40:38.244Z,24.60
2022-12-05T01:43:05.997Z,27.27
2022-12-05T01:45:33.837Z,25.50
2022-12-05T01:48:01.643Z,25.60
2022-12-05T01:50:29.451Z,26.70
2022-12-05T01:52:57.537Z,26.77
2022-12-05T01:55:25.306Z,26.05
2022-12-05T01:57:53.148Z,25.48
2022-12-05T02:00:21.290Z,24.60
2022-12-05T02:02:49.106Z,25.52
2022-12-05T02:05:17.154Z,25.58
2022-12-05T02:07:44.978Z,25.98
2022-12-05T02:10:12.958Z,25.77
2022-12-05T02:12:40.744Z,24.92
2022-12-05T02:15:08.501Z,24.10
2022-12-05T02:17:36.412Z,24.33
2022-12-05T02:20:04.349Z,25.75
2022-12-05T02:22:32.184Z,23.13
2022-12-05T02:24:59.955Z,24.90
2022-12-05T02:27:27.776Z,25.70
2022-12-05T02:29:55.885Z,23.73
2022-12-05T02:32:27.906Z,25.05
2022-12-05T02:34:55.677Z,26.80
2022-12-05T02:37:23.459Z,24.52
2022-12-05T02:39:51.243Z,23.42
2022-12-05T02:42:19.102Z,24.17
2022-12-05T02:44:46.863Z,24.23
2022-12-05T02:47:14.644Z,24.25
2022-12-05T02:49:43.695Z,23.80
2022-12-05T02:52:11.440Z,25.20
2022-12-05T02:54:39.409Z,22.23
2022-12-05T02:57:07.196Z,23.92
2022-12-05T02:59:35.100Z,26.02
2022-12-05T03:02:02.874Z,24.38
2022-12-05T03:04:30.770Z,22.98
2022-12-05T03:06:59.115Z,22.63
2022-12-05T03:09:27.318Z,21.83
2022-12-05T03:11:55.083Z,22.92
2022-12-05T03:14:22.894Z,21.83
2022-12-05T03:16:50.735Z,21.80
2022-12-05T03:19:18.713Z,22.58
2022-12-05T03:21:46.427Z,24.23
2022-12-05T03:24:14.207Z,22.67
2022-12-05T03:26:42.059Z,21.15
2022-12-05T03:29:10.207Z,21.38
2022-12-05T03:31:38.096Z,21.90
2022-12-05T03:34:05.874Z,20.50
2022-12-05T03:36:33.678Z,20.58
2022-12-05T03:39:01.497Z,21.83
2022-12-05T03:41:29.327Z,20.40
2022-12-05T03:43:57.223Z,22.67
2022-12-05T03:46:25.053Z,21.05
2022-12-05T03:48:52.977Z,21.13
2022-12-05T03:51:21.028Z,20.40
2022-12-05T03:53:48.770Z,20.70
2022-12-05T03:56:16.846Z,21.23
2022-12-05T03:58:44.573Z,21.15
2022-12-05T04:01:12.364Z,20.23
2022-12-05T04:03:40.498Z,20.55
2022-12-05T04:06:08.398Z,21.42
2022-12-05T04:08:36.168Z,21.65
2022-12-05T04:11:04.001Z,21.10
2022-12-05T04:13:31.775Z,19.45
2022-12-05T04:16:17.184Z,19.65
2022-12-05T04:18:45.110Z,23.52
2022-12-05T04:21:30.379Z,20.60
2022-12-05T04:24:15.477Z,20.35
2022-12-05T04:26:43.234Z,19.80
2022-12-05T04:29:10.949Z,19.80
2022-12-05T04:31:38.867Z,20.05
2022-12-05T04:34:06.699Z,19.65
2022-12-05T04:36:34.478Z,19.38
2022-12-05T04:39:02.299Z,20.35
2022-12-05T04:41:30.185Z,18.38
2022-12-05T04:43:58.146Z,19.10
2022-12-05T04:46:25.955Z,18.88
2022-12-05T04:48:53.842Z,19.35
2022-12-05T04:51:21.600Z,19.13
2022-12-05T04:53:55.549Z,17.92
2022-12-05T04:56:23.329Z,19.00
2022-12-05T04:58:51.147Z,19.10
2022-12-05T05:01:19.000Z,18.27
2022-12-05T05:03:46.773Z,20.02
2022-12-05T05:06:14.587Z,18.90
2022-12-05T05:08:42.387Z,19.20
2022-12-05T05:11:10.154Z,18.33
2022-12-05T05:13:38.036Z,18.67
2022-12-05T05:16:05.863Z,18.92
2022-12-05T05:18:33.804Z,18.42
2022-12-05T05:21:01.615Z,17.73
2022-12-05T05:23:29.368Z,19.17
2022-12-05T05:25:57.208Z,17.92
2022-12-05T05:28:25.016Z,18.02
2022-12-05T05:30:52.897Z,18.60
2022-12-05T05:33:20.673Z,18.33
2022-12-05T05:35:48.520Z,19.40
2022-12-05T05:38:16.266Z,16.97
2022-12-05T05:40:44.129Z,18.17
2022-12-05T05:43:12.020Z,17.95
2022-12-05T05:45:40.182Z,18.52
2022-12-05T05:48:08.358Z,17.88
2022-12-05T05:50:36.261Z,16.80
2022-12-05T05:53:04.237Z,17.33
2022-12-05T05:55:33.842Z,17.65
2022-12-05T05:58:01.672Z,20.50
2022-12-05T06:00:29.504Z,17.70
2022-12-05T06:02:57.580Z,19.38
2022-12-05T06:05:25.422Z,16.85
2022-12-05T06:07:53.316Z,16.75
2022-12-05T06:10:21.113Z,16.83
2022-12-05T06:12:48.926Z,16.95
2022-12-05T06:15:16.775Z,16.98
2022-12-05T06:17:44.539Z,15.77
2022-12-05T06:20:12.397Z,16.55
2022-12-05T06:22:40.181Z,16.10
2022-12-05T06:25:07.979Z,18.05
2022-12-05T06:27:37.163Z,17.30
2022-12-05T06:30:05.043Z,17.73
2022-12-05T06:32:32.775Z,16.50
2022-12-05T06:35:00.631Z,16.48
2022-12-05T06:37:28.474Z,16.58
2022-12-05T06:39:56.564Z,17.52
2022-12-05T06:42:24.758Z,17.00
2022-12-05T06:44:52.484Z,16.33
2022-12-05T06:47:20.307Z,17.20
2022-12-05T06:49:48.124Z,16.02
2022-12-05T06:52:16.042Z,16.35
2022-12-05T06:54:43.830Z,16.38
2022-12-05T06:57:11.640Z,17.35
2022-12-05T06:59:39.517Z,17.00
2022-12-05T07:02:08.316Z,16.50
2022-12-05T07:04:36.333Z,15.90
2022-12-05T07:07:04.119Z,15.40
2022-12-05T07:12:24.347Z,15.23
2022-12-05T07:14:52.090Z,15.45
2022-12-05T07:17:19.866Z,15.40
2022-12-05T07:19:47.622Z,16.38
2022-12-05T07:22:16.190Z,15.05
2022-12-05T07:24:44.164Z,15.00
2022-12-05T07:27:11.948Z,15.48
2022-12-05T07:29:39.674Z,15.75
2022-12-05T07:32:07.582Z,15.93
2022-12-05T07:34:35.378Z,15.57
2022-12-05T07:37:03.341Z,14.82
2022-12-05T07:39:31.146Z,15.13
2022-12-05T07:41:58.910Z,15.13
2022-12-05T07:44:26.731Z,14.95
2022-12-05T07:46:54.510Z,14.55
2022-12-05T07:49:22.329Z,15.63
2022-12-05T07:51:51.472Z,15.38
2022-12-05T07:54:19.350Z,14.73
2022-12-05T07:56:48.154Z,15.00
2022-12-05T07:59:16.037Z,14.77
2022-12-05T08:01:43.936Z,15.60
2022-12-05T08:04:15.254Z,14.48
2022-12-05T08:06:43.525Z,14.80
2022-12-05T08:09:11.369Z,15.02
2022-12-05T08:11:39.247Z,15.15
2022-12-05T08:14:07.076Z,14.57
2022-12-05T08:16:34.927Z,14.18
2022-12-05T08:19:02.750Z,14.90
2022-12-05T08:21:30.533Z,15.02
2022-12-05T08:23:58.409Z,14.88
2022-12-05T08:26:26.176Z,15.32
2022-12-05T08:28:53.899Z,14.98
2022-12-05T08:31:24.436Z,14.18
2022-12-05T08:33:57.207Z,14.73
2022-12-05T08:36:26.602Z,13.70
2022-12-05T08:38:54.374Z,13.45
2022-12-05T08:41:22.170Z,14.18
2022-12-05T08:43:49.954Z,13.82
2022-12-05T08:46:17.750Z,14.27
2022-12-05T08:48:45.573Z,13.10
2022-12-05T08:51:13.706Z,14.48
2022-12-05T08:53:44.625Z,14.23
2022-12-05T08:56:12.716Z,13.13
2022-12-05T08:58:40.590Z,13.65
2022-12-05T09:01:08.461Z,12.82
2022-12-05T09:03:36.551Z,13.23
2022-12-05T09:06:04.347Z,13.23
2022-12-05T09:08:32.087Z,12.57
2022-12-05T09:10:59.922Z,13.23
2022-12-05T09:13:28.259Z,13.32
2022-12-05T09:15:56.075Z,13.38
2022-12-05T09:18:23.875Z,13.15
2022-12-05T09:20:51.770Z,12.38
2022-12-05T09:23:19.520Z,12.98
2022-12-05T09:25:47.360Z,13.20
2022-12-05T09:28:15.225Z,12.80
2022-12-05T09:30:43.912Z,12.00
2022-12-05T09:33:11.743Z,12.73
2022-12-05T09:35:39.561Z,12.85
2022-12-05T09:38:07.387Z,12.80
2022-12-05T09:40:35.164Z,12.60
2022-12-05T09:43:02.968Z,13.07
2022-12-05T09:45:30.748Z,12.57
2022-12-05T09:47:58.584Z,11.85
2022-12-05T09:50:26.685Z,12.23
2022-12-05T09:52:54.493Z,12.65
2022-12-05T09:55:22.395Z,12.13
2022-12-05T09:57:50.136Z,12.60
2022-12-05T10:00:17.916Z,11.90
2022-12-05T10:02:45.824Z,12.70
2022-12-05T10:05:13.602Z,12.02
2022-12-05T10:07:41.425Z,12.18
2022-12-05T10:10:11.315Z,12.35
2022-12-05T10:12:41.263Z,12.35
2022-12-05T10:15:09.180Z,11.57
2022-12-05T10:17:36.962Z,11.27
2022-12-05T10:20:04.776Z,11.85
2022-12-05T10:22:32.532Z,11.88
2022-12-05T10:25:00.572Z,12.30
2022-12-05T10:27:28.567Z,11.23
2022-12-05T10:29:57.370Z,11.95
2022-12-05T10:32:25.184Z,12.10
2022-12-05T10:34:52.981Z,11.43
2022-12-05T10:37:20.787Z,11.43
2022-12-05T10:39:48.593Z,11.85
2022-12-05T10:42:16.381Z,11.52
2022-12-05T10:44:44.552Z,11.18
2022-12-05T10:47:12.434Z,10.75
2022-12-05T10:49:40.305Z,11.23
2022-12-05T10:52:08.267Z,11.32
2022-12-05T10:54:36.122Z,10.55
2022-12-05T10:57:04.132Z,10.60
2022-12-05T10:59:31.972Z,10.80
2022-12-05T11:02:01.102Z,10.50
2022-12-05T11:04:29.616Z,11.10
2022-12-05T11:06:57.426Z,10.90
2022-12-05T11:09:25.293Z,10.73
2022-12-05T11:11:53.108Z,11.13
2022-12-05T11:14:20.887Z,9.73
2022-12-05T11:16:48.751Z,10.52
2022-12-05T11:19:16.730Z,10.45
2022-12-05T11:21:44.471Z,11.02
2022-12-05T11:24:12.272Z,10.23
2022-12-05T11:26:40.056Z,10.65
2022-12-05T11:29:07.878Z,9.80
2022-12-05T11:31:35.678Z,10.48
2022-12-05T11:34:03.513Z,10.18
2022-12-05T11:36:31.282Z,10.38
2022-12-05T11:38:59.049Z,10.38
2022-12-05T11:41:26.888Z,10.40
2022-12-05T11:43:54.694Z,9.85
2022-12-05T11:46:26.995Z,9.90
2022-12-05T11:48:55.101Z,10.70
2022-12-05T11:51:22.885Z,10.00
2022-12-05T11:53:50.639Z,10.50
2022-12-05T11:56:18.636Z,9.85
2022-12-05T11:58:46.587Z,10.50
2022-12-05T12:01:14.393Z,9.52
2022-12-05T12:03:42.205Z,9.70
2022-12-05T12:06:09.945Z,10.25
2022-12-05T12:08:37.756Z,10.32
2022-12-05T12:11:06.688Z,9.70
2022-12-05T12:13:34.550Z,9.55
2022-12-05T12:16:07.946Z,9.55
2022-12-05T12:18:36.439Z,9.98
2022-12-05T12:21:04.257Z,10.00
2022-12-05T12:23:32.019Z,10.13
2022-12-05T12:25:59.829Z,9.05
2022-12-05T12:28:27.661Z,10.20
2022-12-05T12:30:55.484Z,9.38
2022-12-05T12:33:27.115Z,9.73
2022-12-05T12:35:55.276Z,9.15
2022-12-05T12:38:23.158Z,9.98
2022-12-05T12:40:51.000Z,9.75
2022-12-05T12:43:51.652Z,8.68
2022-12-05T12:46:11.028Z,9.45
2022-12-05T12:48:39.220Z,8.95
2022-12-05T12:51:07.063Z,9.27
2022-12-05T12:53:35.112Z,9.63
2022-12-05T12:56:02.865Z,8.60
2022-12-05T12:58:30.662Z,9.45
2022-12-05T13:00:58.450Z,8.70
2022-12-05T13:03:26.446Z,8.55
2022-12-05T13:05:54.228Z,9.35
2022-12-05T13:08:22.375Z,8.75
2022-12-05T13:10:50.247Z,9.27
2022-12-05T13:13:18.118Z,8.65
2022-12-05T13:15:47.411Z,8.77
2022-12-05T13:18:15.241Z,8.80
2022-12-05T13:20:43.045Z,8.57
2022-12-05T13:23:10.776Z,8.85
2022-12-05T13:25:40.192Z,8.82
2022-12-05T13:28:08.417Z,8.27
2022-12-05T13:30:56.187Z,9.05
2022-12-05T13:33:25.599Z,8.95
2022-12-05T13:36:15.661Z,8.38
2022-12-05T13:39:02.504Z,8.75
2022-12-05T13:41:47.730Z,8.75
2022-12-05T13:44:15.906Z,8.63
2022-12-05T13:46:43.707Z,8.90
2022-12-05T13:49:15.756Z,8.27
2022-12-05T13:51:44.871Z,8.45
2022-12-05T13:54:12.633Z,8.57
2022-12-05T13:56:40.420Z,9.07
2022-12-05T13:59:08.180Z,8.50
2022-12-05T14:01:39.398Z,8.98
2022-12-05T14:04:11.966Z,7.97
2022-12-05T14:06:39.850Z,8.50
2022-12-05T14:09:07.629Z,8.43
2022-12-05T14:11:35.580Z,8.60
2022-12-05T14:14:05.034Z,7.85
2022-12-05T14:16:34.325Z,8.52
2022-12-05T14:19:02.247Z,8.65
2022-12-05T14:21:30.034Z,8.10
2022-12-05T14:23:57.866Z,8.07
2022-12-05T14:26:32.008Z,8.35
2022-12-05T14:28:59.856Z,8.18
2022-12-05T14:31:27.930Z,7.13
2022-12-05T14:33:55.675Z,8.00
2022-12-05T14:36:30.409Z,7.88
2022-12-05T14:38:58.177Z,7.63
2022-12-05T14:41:25.970Z,7.22
2022-12-05T14:43:53.833Z,8.27
2022-12-05T14:46:21.716Z,7.97
2022-12-05T14:48:49.594Z,7.18
2022-12-05T14:51:17.374Z,7.30
2022-12-05T14:53:45.174Z,6.60
2022-12-05T14:56:13.387Z,6.53
2022-12-05T14:58:41.144Z,6.72
2022-12-05T15:01:09.119Z,6.82
2022-12-05T15:03:37.037Z,6.25
2022-12-05T15:06:04.810Z,6.25
2022-12-05T15:08:32.914Z,6.50
2022-12-05T15:11:00.636Z,6.75
2022-12-05T15:13:28.621Z,6.40
2022-12-05T15:15:56.409Z,6.60
2022-12-05T15:18:24.233Z,6.28
2022-12-05T15:20:52.075Z,6.07
2022-12-05T15:23:19.881Z,6.60
2022-12-05T15:25:47.708Z,6.25
2022-12-05T15:28:15.560Z,6.72
2022-12-05T15:30:43.315Z,6.70
2022-12-05T15:33:11.495Z,5.68
2022-12-05T15:35:39.251Z,6.13
2022-12-05T15:38:09.293Z,5.78
2022-12-05T15:40:37.959Z,5.70
2022-12-05T15:43:05.737Z,5.80
2022-12-05T15:45:33.480Z,5.60
2022-12-05T15:48:01.247Z,5.30
2022-12-05T15:50:28.980Z,5.65
2022-12-05T15:52:56.786Z,6.20
2022-12-05T15:55:24.558Z,5.70
2022-12-05T15:57:52.568Z,5.65
2022-12-05T16:00:22.514Z,6.03
2022-12-05T16:02:50.324Z,5.90
2022-12-05T16:05:18.189Z,5.88
2022-12-05T16:07:46.046Z,5.63
2022-12-05T16:10:14.456Z,6.57
2022-12-05T16:12:42.851Z,6.45
2022-12-05T16:15:10.641Z,6.53
2022-12-05T16:17:38.417Z,5.93
2022-12-05T16:20:06.235Z,6.68
2022-12-05T16:22:34.576Z,6.60
2022-12-05T16:25:02.420Z,6.38
2022-12-05T16:27:30.208Z,6.40
2022-12-05T16:29:58.334Z,7.15
2022-12-05T16:32:26.269Z,6.28
2022-12-05T16:34:54.002Z,6.55
2022-12-05T16:37:21.965Z,8.27
2022-12-05T16:39:49.706Z,6.60
2022-12-05T16:42:17.540Z,7.43
2022-12-05T16:44:45.397Z,6.40
2022-12-05T16:47:13.152Z,7.32
2022-12-05T16:49:46.079Z,6.45
2022-12-05T16:52:14.783Z,6.07
2022-12-05T16:54:42.812Z,6.18
2022-12-05T16:57:10.675Z,7.75
2022-12-05T16:59:38.530Z,5.93
2022-12-05T17:02:06.406Z,8.52
2022-12-05T17:04:34.406Z,6.30
2022-12-05T17:07:02.213Z,7.32
2022-12-05T17:09:30.144Z,6.57
2022-12-05T17:11:57.898Z,6.37
2022-12-05T17:14:26.035Z,7.65
2022-12-05T17:16:53.907Z,7.07
2022-12-05T17:19:21.795Z,6.45
2022-12-05T17:21:49.907Z,6.45
2022-12-05T17:24:18.035Z,7.35
2022-12-05T17:26:46.218Z,6.18
2022-12-05T17:29:14.103Z,5.75
2022-12-05T17:31:42.044Z,6.55
2022-12-05T17:34:09.895Z,5.75
2022-12-05T17:36:37.717Z,6.28
2022-12-05T17:39:05.627Z,5.53
2022-12-05T17:41:33.401Z,5.93
2022-12-05T17:44:01.444Z,5.90
2022-12-05T17:46:29.304Z,5.60
2022-12-05T17:48:57.422Z,5.10
2022-12-05T17:51:25.249Z,5.40
2022-12-05T17:53:54.616Z,5.55
2022-12-05T17:56:22.899Z,7.13
2022-12-05T17:58:50.919Z,5.38
2022-12-05T18:01:19.499Z,5.72
2022-12-05T18:03:47.369Z,5.88
2022-12-05T18:06:15.649Z,10.60
2022-12-05T18:08:45.008Z,7.35
2022-12-05T18:11:12.786Z,5.85
2022-12-05T18:13:40.556Z,5.97
2022-12-05T18:16:08.412Z,7.38
2022-12-05T18:18:36.316Z,6.90
2022-12-05T18:21:04.159Z,7.40
2022-12-05T18:23:31.966Z,6.50
2022-12-05T18:26:00.208Z,6.45
2022-12-05T18:28:28.231Z,6.60
2022-12-05T18:30:56.008Z,8.23
2022-12-05T18:33:23.776Z,6.95
2022-12-05T18:35:51.541Z,5.90
2022-12-05T18:38:19.409Z,7.75
2022-12-05T18:40:47.285Z,6.88
2022-12-05T18:43:15.156Z,8.30
2022-12-05T18:45:42.954Z,6.43
2022-12-05T18:48:31.511Z,6.93
2022-12-05T18:50:58.606Z,6.97
2022-12-05T18:53:26.410Z,5.70
2022-12-05T18:58:42.051Z,6.20
2022-12-05T19:01:09.903Z,6.07
2022-12-05T19:03:37.776Z,5.93
2022-12-05T19:06:05.656Z,6.13
2022-12-05T19:08:33.626Z,6.10
2022-12-05T19:11:01.435Z,5.20
2022-12-05T19:13:29.412Z,5.65
2022-12-05T19:15:57.204Z,5.07
2022-12-05T19:18:25.094Z,5.15
2022-12-05T19:20:52.881Z,5.10
2022-12-05T19:23:20.619Z,5.18
2022-12-05T19:25:48.388Z,5.00
2022-12-05T19:28:16.222Z,5.07
2022-12-05T19:30:44.036Z,4.60
2022-12-05T19:33:12.043Z,4.75
2022-12-05T19:35:39.824Z,4.55
2022-12-05T19:38:07.614Z,4.90
2022-12-05T19:40:35.376Z,4.55
2022-12-05T19:43:04.359Z,5.05
2022-12-05T19:45:32.170Z,5.05
2022-12-05T19:47:59.968Z,6.57
2022-12-05T19:50:28.577Z,5.95
2022-12-05T19:52:56.369Z,5.60
2022-12-05T19:55:24.082Z,5.03
2022-12-05T19:57:52.071Z,5.22
2022-12-05T20:00:19.942Z,4.95
2022-12-05T20:02:50.354Z,5.55
2022-12-05T20:05:18.396Z,5.22
2022-12-05T20:07:46.458Z,5.30
2022-12-05T20:10:14.681Z,5.72
2022-12-05T20:12:42.433Z,5.88
2022-12-05T20:15:10.567Z,5.50
2022-12-05T20:17:38.376Z,5.25
2022-12-05T20:20:06.165Z,5.25
2022-12-05T20:22:33.966Z,5.90
2022-12-05T20:25:02.081Z,5.85
2022-12-05T20:27:29.843Z,5.88
2022-12-05T20:29:58.235Z,5.15
2022-12-05T20:32:26.223Z,5.63
2022-12-05T20:34:54.275Z,5.22
2022-12-05T20:37:22.273Z,5.68
2022-12-05T20:39:51.135Z,5.15
2022-12-05T20:42:19.002Z,5.65
2022-12-05T20:44:46.842Z,5.50
2022-12-05T20:47:14.909Z,5.20
2022-12-05T20:49:42.721Z,5.47
2022-12-05T20:52:10.547Z,6.30
2022-12-05T20:54:38.280Z,4.85
2022-12-05T20:57:06.091Z,5.07
2022-12-05T20:59:33.934Z,5.15
2022-12-05T21:02:01.771Z,5.43
2022-12-05T21:04:29.715Z,5.50
2022-12-05T21:06:57.479Z,5.28
2022-12-05T21:09:29.474Z,6.18
2022-12-05T21:11:57.459Z,5.80
2022-12-05T21:14:25.257Z,5.30
2022-12-05T21:16:53.482Z,6.68
2022-12-05T21:19:21.278Z,5.35
2022-12-05T21:21:49.153Z,5.57
2022-12-05T21:24:17.056Z,5.68
2022-12-05T21:26:45.071Z,6.20
2022-12-05T21:29:12.961Z,7.50
2022-12-05T21:31:40.835Z,7.30
2022-12-05T21:34:08.611Z,5.65
2022-12-05T21:36:36.426Z,6.47
2022-12-05T21:39:04.186Z,5.47
2022-12-05T21:41:31.934Z,6.72
2022-12-05T21:43:59.759Z,6.85
2022-12-05T21:46:27.646Z,5.93
2022-12-05T21:48:55.453Z,5.95
2022-12-05T21:51:23.259Z,5.78
2022-12-05T21:53:51.098Z,7.15
2022-12-05T21:56:18.901Z,5.85
2022-12-05T21:58:46.721Z,5.70
2022-12-05T22:01:15.231Z,5.65
2022-12-05T22:03:43.600Z,7.40
2022-12-05T22:06:11.364Z,7.53
2022-12-05T22:08:39.287Z,6.95
2022-12-05T22:11:07.135Z,6.15
2022-12-05T22:13:34.932Z,7.45
2022-12-05T22:16:10.435Z,6.25
2022-12-05T22:18:54.739Z,6.25
2022-12-05T22:21:30.903Z,6.57
2022-12-05T22:24:14.536Z,6.18
2022-12-05T22:26:54.185Z,6.82
2022-12-05T22:29:24.613Z,5.70
2022-12-05T22:31:55.747Z,5.43
2022-12-05T22:34:26.950Z,7.70
2022-12-05T22:37:04.100Z,6.28
2022-12-05T22:39:39.328Z,5.70
2022-12-05T22:42:10.076Z,6.15
2022-12-05T22:44:55.644Z,7.35
2022-12-05T22:47:25.813Z,5.47
2022-12-05T22:49:53.586Z,6.32
2022-12-05T22:52:21.362Z,5.57
2022-12-05T22:54:49.059Z,5.38
2022-12-05T22:57:16.891Z,7.68
2022-12-05T22:59:44.628Z,6.05
2022-12-05T23:02:12.350Z,5.90
2022-12-05T23:04:40.070Z,6.20
2022-12-05T23:07:07.835Z,5.57
2022-12-05T23:09:35.559Z,5.82
2022-12-05T23:12:05.324Z,5.47
2022-12-05T23:14:33.093Z,5.88
2022-12-05T23:17:00.967Z,5.72
2022-12-05T23:19:28.677Z,6.00
2022-12-05T23:21:56.461Z,5.18
2022-12-05T23:24:24.272Z,5.75
2022-12-05T23:26:51.996Z,6.20
2022-12-05T23:29:22.715Z,5.28
2022-12-05T23:31:55.740Z,6.10
2022-12-05T23:34:23.428Z,5.28
2022-12-05T23:36:51.119Z,5.03
2022-12-05T23:39:21.895Z,5.05
2022-12-05T23:41:50.030Z,5.18
2022-12-05T23:44:17.746Z,5.05
2022-12-05T23:46:45.569Z,5.30
2022-12-05T23:49:13.389Z,4.90
2022-12-05T23:51:41.153Z,6.20
2022-12-05T23:54:08.859Z,5.30
2022-12-05T23:56:36.622Z,4.95
2022-12-05T23:59:04.445Z,5.72
